createdAt,value
2018-05-21T00:00:14.065Z,74.50
2018-05-21T00:02:44.595Z,75.20
2018-05-21T00:05:12.050Z,75.80
2018-05-21T00:07:40.441Z,76.40
2018-05-21T00:10:07.940Z,77.30
2018-05-21T00:12:35.470Z,77.70
2018-05-21T00:15:02.912Z,78.50
2018-05-21T00:17:30.673Z,79.50
2018-05-21T00:20:01.817Z,80.50
2018-05-21T00:22:30.905Z,81.80
2018-05-21T00:24:58.367Z,81.90
2018-05-21T00:27:25.872Z,81.80
2018-05-21T00:29:53.353Z,82.80
2018-05-21T00:32:20.815Z,83.80
2018-05-21T00:34:59.567Z,84.40
2018-05-21T00:37:27.025Z,85.80
2018-05-21T00:39:59.176Z,88.40
2018-05-21T00:42:26.660Z,88.20
2018-05-21T00:44:54.159Z,89.40
2018-05-21T00:47:21.636Z,90.00
2018-05-21T00:49:49.112Z,90.60
2018-05-21T00:52:16.589Z,91.30
2018-05-21T00:54:46.704Z,92.20
2018-05-21T00:57:14.199Z,93.20
2018-05-21T00:59:41.663Z,93.60
2018-05-21T01:02:10.088Z,93.90
2018-05-21T01:04:37.543Z,94.80
2018-05-21T01:07:05.027Z,95.70
2018-05-21T01:09:32.507Z,97.10
2018-05-21T01:12:00.016Z,98.20
2018-05-21T01:14:27.472Z,99.70
2018-05-21T01:16:54.927Z,99.90
2018-05-21T01:19:25.300Z,99.90
2018-05-21T01:21:52.721Z,99.90
2018-05-21T01:24:20.377Z,99.90
2018-05-21T01:26:48.748Z,99.90
2018-05-21T01:29:16.209Z,99.90
2018-05-21T01:31:43.864Z,99.90
2018-05-21T01:34:11.327Z,99.90
2018-05-21T01:36:42.681Z,99.90
2018-05-21T01:39:10.934Z,99.90
2018-05-21T01:41:38.417Z,99.90
2018-05-21T01:44:05.893Z,99.90
2018-05-21T01:46:33.385Z,99.90
2018-05-21T01:49:00.873Z,99.90
2018-05-21T01:51:32.840Z,99.90
2018-05-21T01:54:00.289Z,99.90
2018-05-21T01:56:27.784Z,99.90
2018-05-21T01:58:56.028Z,99.90
2018-05-21T02:01:23.506Z,99.90
2018-05-21T02:03:50.976Z,99.90
2018-05-21T02:06:22.596Z,99.90
2018-05-21T02:08:50.665Z,99.90
2018-05-21T02:11:18.155Z,99.90
2018-05-21T02:13:45.648Z,99.90
2018-05-21T02:16:13.112Z,99.90
2018-05-21T02:18:40.589Z,99.90
2018-05-21T02:21:08.043Z,99.90
2018-05-21T02:23:36.808Z,99.90
2018-05-21T02:26:04.289Z,99.90
2018-05-21T02:28:31.768Z,99.90
2018-05-21T02:30:59.273Z,99.90
2018-05-21T02:33:26.737Z,99.90
2018-05-21T02:35:57.733Z,99.90
2018-05-21T02:38:26.370Z,99.90
2018-05-21T02:40:53.857Z,99.90
2018-05-21T02:43:21.529Z,99.90
2018-05-21T02:45:50.695Z,99.90
2018-05-21T02:48:18.173Z,99.90
2018-05-21T02:50:49.623Z,99.90
2018-05-21T02:53:17.085Z,99.90
2018-05-21T02:55:44.566Z,99.90
2018-05-21T02:58:12.803Z,99.90
2018-05-21T03:00:40.265Z,99.90
2018-05-21T03:03:07.732Z,99.90
2018-05-21T03:05:38.941Z,99.90
2018-05-21T03:08:06.403Z,99.90
2018-05-21T03:10:36.228Z,99.90
2018-05-21T03:13:03.710Z,99.90
2018-05-21T03:15:31.184Z,99.90
2018-05-21T03:17:59.456Z,99.90
2018-05-21T03:20:37.440Z,99.90
2018-05-21T03:23:04.946Z,99.90
2018-05-21T03:25:32.434Z,99.90
2018-05-21T03:28:00.732Z,99.90
2018-05-21T03:30:28.355Z,99.90
2018-05-21T03:32:55.853Z,99.90
2018-05-21T03:35:25.018Z,99.90
2018-05-21T03:37:52.477Z,99.90
2018-05-21T03:40:19.960Z,99.90
2018-05-21T03:42:47.413Z,99.90
2018-05-21T03:45:14.890Z,99.90
2018-05-21T03:47:42.348Z,99.90
2018-05-21T03:50:09.828Z,99.90
2018-05-21T03:52:37.307Z,99.90
2018-05-21T03:55:04.789Z,99.90
2018-05-21T03:57:32.257Z,99.90
2018-05-21T04:00:11.609Z,99.90
2018-05-21T04:02:51.563Z,99.90
2018-05-21T04:05:19.311Z,99.90
2018-05-21T04:07:46.760Z,99.90
2018-05-21T04:10:15.361Z,99.90
2018-05-21T04:12:42.837Z,99.90
2018-05-21T04:15:10.831Z,99.90
2018-05-21T04:17:38.318Z,99.90
2018-05-21T04:20:05.835Z,99.90
2018-05-21T04:22:34.066Z,99.90
2018-05-21T04:25:01.555Z,99.90
2018-05-21T04:27:29.289Z,99.90
2018-05-21T04:29:56.762Z,99.90
2018-05-21T04:32:25.432Z,99.90
2018-05-21T04:34:53.229Z,99.90
2018-05-21T04:37:28.135Z,99.90
2018-05-21T04:39:55.595Z,99.90
2018-05-21T04:42:23.110Z,98.50
2018-05-21T04:44:50.585Z,97.20
2018-05-21T04:47:18.053Z,95.40
2018-05-21T04:49:45.515Z,94.20
2018-05-21T04:52:16.243Z,93.50
2018-05-21T04:54:43.720Z,92.00
2018-05-21T04:57:12.726Z,89.60
2018-05-21T04:59:40.184Z,89.60
2018-05-21T05:02:07.728Z,86.90
2018-05-21T05:04:35.491Z,84.30
2018-05-21T05:07:02.958Z,83.60
2018-05-21T05:09:30.505Z,83.20
2018-05-21T05:11:59.140Z,83.10
2018-05-21T05:14:26.620Z,83.10
2018-05-21T05:16:54.081Z,82.80
2018-05-21T05:19:21.561Z,81.60
2018-05-21T05:21:49.013Z,80.70
2018-05-21T05:24:16.496Z,79.60
2018-05-21T05:26:44.833Z,77.80
2018-05-21T05:29:14.456Z,76.10
2018-05-21T05:31:42.708Z,76.00
2018-05-21T05:34:10.191Z,75.60
2018-05-21T05:36:37.652Z,75.90
2018-05-21T05:39:09.308Z,75.60
2018-05-21T05:41:37.715Z,75.30
2018-05-21T05:44:05.172Z,76.20
2018-05-21T05:46:32.650Z,75.40
2018-05-21T05:49:00.092Z,75.10
2018-05-21T05:51:27.708Z,75.60
2018-05-21T05:53:55.182Z,75.20
2018-05-21T05:56:22.709Z,75.20
2018-05-21T05:58:50.178Z,74.50
2018-05-21T06:01:17.681Z,74.00
2018-05-21T06:03:46.400Z,72.50
2018-05-21T06:06:13.895Z,72.10
2018-05-21T06:08:41.361Z,71.80
2018-05-21T06:11:13.225Z,72.90
2018-05-21T06:13:40.757Z,72.90
2018-05-21T06:16:08.223Z,73.00
2018-05-21T06:18:35.796Z,74.10
2018-05-21T06:21:04.078Z,75.50
2018-05-21T06:23:31.539Z,75.40
2018-05-21T06:26:03.314Z,76.40
2018-05-21T06:28:30.788Z,77.30
2018-05-21T06:30:58.287Z,79.10
2018-05-21T06:33:25.788Z,81.40
2018-05-21T06:35:53.291Z,83.60
2018-05-21T06:38:20.874Z,85.60
2018-05-21T06:40:53.612Z,87.50
2018-05-21T06:43:21.080Z,89.00
2018-05-21T06:45:49.523Z,90.10
2018-05-21T06:48:17.206Z,90.70
2018-05-21T06:50:44.693Z,90.40
2018-05-21T06:53:12.173Z,91.10
2018-05-21T06:55:43.928Z,91.70
2018-05-21T06:58:11.392Z,91.70
2018-05-21T07:00:38.975Z,91.50
2018-05-21T07:03:06.436Z,91.80
2018-05-21T07:05:33.940Z,92.20
2018-05-21T07:08:01.411Z,92.40
2018-05-21T07:10:28.868Z,92.40
2018-05-21T07:12:56.369Z,92.20
2018-05-21T07:15:23.877Z,92.30
2018-05-21T07:17:51.348Z,92.20
2018-05-21T07:20:18.804Z,92.00
2018-05-21T07:22:47.983Z,92.50
2018-05-21T07:25:15.463Z,92.60
2018-05-21T07:27:43.740Z,91.90
2018-05-21T07:30:11.193Z,91.90
2018-05-21T07:32:38.688Z,92.60
2018-05-21T07:35:06.523Z,92.10
2018-05-21T07:37:34.009Z,91.90
2018-05-21T07:40:05.118Z,92.30
2018-05-21T07:42:32.602Z,92.30
2018-05-21T07:45:00.109Z,91.60
2018-05-21T07:47:27.590Z,91.90
2018-05-21T07:49:55.175Z,92.00
2018-05-21T07:52:22.632Z,92.00
2018-05-21T07:54:50.502Z,91.70
2018-05-21T07:57:17.961Z,92.00
2018-05-21T07:59:45.450Z,91.10
2018-05-21T08:02:12.920Z,91.20
2018-05-21T08:04:40.430Z,91.00
2018-05-21T08:07:07.932Z,91.10
2018-05-21T08:09:35.444Z,91.00
2018-05-21T08:12:04.920Z,91.30
2018-05-21T08:14:33.184Z,90.40
2018-05-21T08:17:00.649Z,90.40
2018-05-21T08:19:28.840Z,90.30
2018-05-21T08:21:56.304Z,90.30
2018-05-21T08:24:24.569Z,90.80
2018-05-21T08:26:56.553Z,90.70
2018-05-21T08:29:23.992Z,90.30
2018-05-21T08:31:51.487Z,89.60
2018-05-21T08:34:18.951Z,90.60
2018-05-21T08:36:46.482Z,90.10
2018-05-21T08:39:14.708Z,89.00
2018-05-21T08:41:47.404Z,89.00
2018-05-21T08:44:14.901Z,89.00
2018-05-21T08:46:42.361Z,87.90
2018-05-21T08:49:09.820Z,88.00
2018-05-21T08:51:37.309Z,88.20
2018-05-21T08:54:05.013Z,87.10
2018-05-21T08:56:36.771Z,86.00
2018-05-21T08:59:04.124Z,86.00
2018-05-21T09:01:31.622Z,85.90
2018-05-21T09:03:59.085Z,85.60
2018-05-21T09:06:26.603Z,85.90
2018-05-21T09:08:54.105Z,85.50
2018-05-21T09:11:22.149Z,85.80
2018-05-21T09:13:49.645Z,86.20
2018-05-21T09:16:17.218Z,86.30
2018-05-21T09:18:44.649Z,84.80
2018-05-21T09:21:12.231Z,84.20
2018-05-21T09:23:39.719Z,84.10
2018-05-21T09:26:07.311Z,82.40
2018-05-21T09:28:34.696Z,82.70
2018-05-21T09:31:02.152Z,81.50
2018-05-21T09:33:30.056Z,82.20
2018-05-21T09:35:57.520Z,82.40
2018-05-21T09:38:25.793Z,80.80
2018-05-21T09:40:54.963Z,80.50
2018-05-21T09:43:22.425Z,80.50
2018-05-21T09:45:49.924Z,80.40
2018-05-21T09:48:17.387Z,80.80
2018-05-21T09:50:45.606Z,80.20
2018-05-21T09:53:13.130Z,80.30
2018-05-21T09:55:40.601Z,78.80
2018-05-21T09:58:08.640Z,80.40
2018-05-21T10:00:36.127Z,79.80
2018-05-21T10:03:03.580Z,80.50
2018-05-21T10:05:31.834Z,80.90
2018-05-21T10:07:59.312Z,78.80
2018-05-21T10:10:27.848Z,78.30
2018-05-21T10:12:55.677Z,77.30
2018-05-21T10:15:24.104Z,78.50
2018-05-21T10:17:52.275Z,78.30
2018-05-21T10:20:20.528Z,77.80
2018-05-21T10:22:49.094Z,76.70
2018-05-21T10:25:17.900Z,75.20
2018-05-21T10:27:45.364Z,75.80
2018-05-21T10:30:13.321Z,75.80
2018-05-21T10:32:40.820Z,74.90
2018-05-21T10:35:09.080Z,74.20
2018-05-21T10:37:38.433Z,74.10
2018-05-21T10:40:06.668Z,74.10
2018-05-21T10:42:34.170Z,73.80
2018-05-21T10:45:03.512Z,74.50
2018-05-21T10:47:32.563Z,74.00
2018-05-21T10:50:00.037Z,73.30
2018-05-21T10:52:28.467Z,75.70
2018-05-21T10:54:56.518Z,72.40
2018-05-21T10:57:24.061Z,72.40
2018-05-21T10:59:51.515Z,72.00
2018-05-21T11:02:19.980Z,71.50
2018-05-21T11:04:47.493Z,73.00
2018-05-21T11:07:15.714Z,73.80
2018-05-21T11:09:43.221Z,72.70
2018-05-21T11:12:11.491Z,71.30
2018-05-21T11:14:41.316Z,72.40
2018-05-21T11:17:09.524Z,72.40
2018-05-21T11:19:36.997Z,73.00
2018-05-21T11:22:05.028Z,71.30
2018-05-21T11:24:33.603Z,71.60
2018-05-21T11:27:01.432Z,72.10
2018-05-21T11:29:30.255Z,70.90
2018-05-21T11:31:57.852Z,71.10
2018-05-21T11:34:26.259Z,70.60
2018-05-21T11:36:54.480Z,69.30
2018-05-21T11:39:21.932Z,70.60
2018-05-21T11:41:49.436Z,69.80
2018-05-21T11:44:20.896Z,69.60
2018-05-21T11:46:48.383Z,69.60
2018-05-21T11:49:15.839Z,69.70
2018-05-21T11:51:44.703Z,68.90
2018-05-21T11:54:12.160Z,68.90
2018-05-21T11:56:39.648Z,67.80
2018-05-21T11:59:13.635Z,67.70
2018-05-21T12:01:41.103Z,68.90
2018-05-21T12:04:08.837Z,68.10
2018-05-21T12:06:37.131Z,67.90
2018-05-21T12:09:04.795Z,67.90
2018-05-21T12:11:32.256Z,67.30
2018-05-21T12:13:59.740Z,66.80
2018-05-21T12:16:27.615Z,66.90
2018-05-21T12:18:55.158Z,68.00
2018-05-21T12:21:23.411Z,66.20
2018-05-21T12:23:50.876Z,66.20
2018-05-21T12:26:18.324Z,66.90
2018-05-21T12:28:45.849Z,67.10
2018-05-21T12:31:17.458Z,68.90
2018-05-21T12:33:44.942Z,68.80
2018-05-21T12:36:12.440Z,68.70
2018-05-21T12:38:39.934Z,67.70
2018-05-21T12:41:08.242Z,69.00
2018-05-21T12:43:35.752Z,68.80
2018-05-21T12:46:04.021Z,68.00
2018-05-21T12:48:31.646Z,67.90
2018-05-21T12:50:59.211Z,68.60
2018-05-21T12:53:26.724Z,68.10
2018-05-21T12:55:55.903Z,67.30
2018-05-21T12:58:23.430Z,67.30
2018-05-21T13:00:50.935Z,66.90
2018-05-21T13:03:18.477Z,66.40
2018-05-21T13:05:45.953Z,66.30
2018-05-21T13:08:14.243Z,66.10
2018-05-21T13:10:41.693Z,66.10
2018-05-21T13:13:09.927Z,66.80
2018-05-21T13:15:37.441Z,66.40
2018-05-21T13:18:05.003Z,66.00
2018-05-21T13:20:32.504Z,65.10
2018-05-21T13:22:59.972Z,65.50
2018-05-21T13:25:27.482Z,63.80
2018-05-21T13:27:54.968Z,63.90
2018-05-21T13:30:23.412Z,64.70
2018-05-21T13:32:51.666Z,63.30
2018-05-21T13:35:19.177Z,63.30
2018-05-21T13:37:46.688Z,63.60
2018-05-21T13:40:14.988Z,63.70
2018-05-21T13:42:43.648Z,63.40
2018-05-21T13:45:11.160Z,63.20
2018-05-21T13:47:38.645Z,63.10
2018-05-21T13:50:06.137Z,62.70
2018-05-21T13:52:34.431Z,62.60
2018-05-21T13:55:01.890Z,62.60
2018-05-21T13:57:29.384Z,62.70
2018-05-21T13:59:56.865Z,63.40
2018-05-21T14:02:24.426Z,63.60
2018-05-21T14:04:51.950Z,65.00
2018-05-21T14:07:19.417Z,64.60
2018-05-21T14:09:46.924Z,64.30
2018-05-21T14:12:14.425Z,65.10
2018-05-21T14:14:41.956Z,65.60
2018-05-21T14:17:10.265Z,65.90
2018-05-21T14:19:37.750Z,65.50
2018-05-21T14:22:05.286Z,65.30
2018-05-21T14:24:32.740Z,64.10
2018-05-21T14:27:00.205Z,63.60
2018-05-21T14:29:27.746Z,63.10
2018-05-21T14:31:55.192Z,63.60
2018-05-21T14:34:24.392Z,66.50
2018-05-21T14:36:51.956Z,66.60
2018-05-21T14:39:19.519Z,68.70
2018-05-21T14:41:47.138Z,68.80
2018-05-21T14:44:15.429Z,67.30
2018-05-21T14:46:42.960Z,67.20
2018-05-21T14:49:10.464Z,65.40
2018-05-21T14:51:38.010Z,62.60
2018-05-21T14:54:05.668Z,61.80
2018-05-21T14:56:33.253Z,69.80
2018-05-21T14:59:00.790Z,67.90
2018-05-21T15:01:28.314Z,63.80
2018-05-21T15:03:56.816Z,63.00
2018-05-21T15:06:24.435Z,60.30
2018-05-21T15:08:51.928Z,60.80
2018-05-21T15:11:19.418Z,61.30
2018-05-21T15:13:47.002Z,60.50
2018-05-21T15:16:14.524Z,60.30
2018-05-21T15:18:42.159Z,60.90
2018-05-21T15:21:10.063Z,61.50
2018-05-21T15:23:37.586Z,61.90
2018-05-21T15:26:05.232Z,62.10
2018-05-21T15:28:33.539Z,62.30
2018-05-21T15:31:01.641Z,62.20
2018-05-21T15:33:33.565Z,61.80
2018-05-21T15:36:01.201Z,61.20
2018-05-21T15:38:29.224Z,61.10
2018-05-21T15:40:56.832Z,60.70
2018-05-21T15:43:24.486Z,60.30
2018-05-21T15:45:51.973Z,60.10
2018-05-21T15:48:22.795Z,60.30
2018-05-21T15:50:50.260Z,59.40
2018-05-21T15:53:17.769Z,59.20
2018-05-21T15:55:45.243Z,59.20
2018-05-21T15:58:13.178Z,58.30
2018-05-21T16:00:40.637Z,58.10
2018-05-21T16:03:11.900Z,57.70
2018-05-21T16:05:42.787Z,57.60
2018-05-21T16:08:10.250Z,58.00
2018-05-21T16:10:37.753Z,58.20
2018-05-21T16:13:05.212Z,58.30
2018-05-21T16:15:33.582Z,58.00
2018-05-21T16:18:01.048Z,57.30
2018-05-21T16:20:31.711Z,54.80
2018-05-21T16:22:59.225Z,53.90
2018-05-21T16:25:26.750Z,52.60
2018-05-21T16:27:54.241Z,54.50
2018-05-21T16:30:21.789Z,55.50
2018-05-21T16:32:49.330Z,56.10
2018-05-21T16:35:22.149Z,56.70
2018-05-21T16:37:49.652Z,57.30
2018-05-21T16:40:17.142Z,58.20
2018-05-21T16:42:44.608Z,58.60
2018-05-21T16:45:12.632Z,59.30
2018-05-21T16:47:40.096Z,60.10
2018-05-21T16:50:07.650Z,60.10
2018-05-21T16:52:35.149Z,59.70
2018-05-21T16:55:02.707Z,59.80
2018-05-21T16:57:30.196Z,60.00
2018-05-21T16:59:57.685Z,60.50
2018-05-21T17:02:25.170Z,61.70
2018-05-21T17:05:00.376Z,62.30
2018-05-21T17:07:27.893Z,62.80
2018-05-21T17:09:55.628Z,63.20
2018-05-21T17:12:23.259Z,64.30
2018-05-21T17:14:52.272Z,65.60
2018-05-21T17:17:19.803Z,65.60
2018-05-21T17:19:54.702Z,66.90
2018-05-21T17:22:22.644Z,69.90
2018-05-21T17:24:50.909Z,71.70
2018-05-21T17:27:19.127Z,72.60
2018-05-21T17:29:47.852Z,72.50
2018-05-21T17:32:15.310Z,72.50
2018-05-21T17:34:46.616Z,73.40
2018-05-21T17:37:14.157Z,74.40
2018-05-21T17:39:42.031Z,75.20
2018-05-21T17:42:09.518Z,76.20
2018-05-21T17:44:37.173Z,76.90
2018-05-21T17:47:04.728Z,78.20
2018-05-21T17:49:33.205Z,79.20
2018-05-21T17:52:02.943Z,81.30
2018-05-21T17:54:30.388Z,81.30
2018-05-21T17:56:57.913Z,82.90
2018-05-21T17:59:26.937Z,84.50
2018-05-21T18:01:56.525Z,84.50
2018-05-21T18:04:24.065Z,85.90
2018-05-21T18:06:55.888Z,86.50
2018-05-21T18:09:25.092Z,88.40
2018-05-21T18:11:52.648Z,88.40
2018-05-21T18:14:21.484Z,90.70
2018-05-21T18:16:49.868Z,92.20
2018-05-21T18:19:17.374Z,93.10
2018-05-21T18:21:44.981Z,93.20
2018-05-21T18:24:12.491Z,92.30
2018-05-21T18:26:40.550Z,92.50
2018-05-21T18:29:08.909Z,92.20
2018-05-21T18:31:38.002Z,92.70
2018-05-21T18:34:07.208Z,93.70
2018-05-21T18:36:36.960Z,93.70
2018-05-21T18:39:06.824Z,93.00
2018-05-21T18:41:35.924Z,93.00
2018-05-21T18:44:03.450Z,93.00
2018-05-21T18:46:30.936Z,92.60
2018-05-21T18:48:59.408Z,92.90
2018-05-21T18:51:30.248Z,93.70
2018-05-21T18:53:57.799Z,94.60
2018-05-21T18:56:26.951Z,95.60
2018-05-21T18:58:55.230Z,96.40
2018-05-21T19:01:23.563Z,94.30
2018-05-21T19:03:51.863Z,94.30
2018-05-21T19:06:22.352Z,94.70
2018-05-21T19:08:49.884Z,95.50
2018-05-21T19:11:17.466Z,95.90
2018-05-21T19:13:45.798Z,96.30
2018-05-21T19:16:13.341Z,97.00
2018-05-21T19:18:40.821Z,97.60
2018-05-21T19:21:08.346Z,97.80
2018-05-21T19:23:35.806Z,98.10
2018-05-21T19:26:03.905Z,98.30
2018-05-21T19:28:32.224Z,99.50
2018-05-21T19:30:59.692Z,99.50
2018-05-21T19:33:27.210Z,99.90
2018-05-21T19:35:54.740Z,99.90
2018-05-21T19:38:22.208Z,99.90
2018-05-21T19:40:51.720Z,99.90
2018-05-21T19:43:20.038Z,99.90
2018-05-21T19:45:47.570Z,99.90
2018-05-21T19:48:15.116Z,99.90
2018-05-21T19:50:43.202Z,99.90
2018-05-21T19:53:10.762Z,99.90
2018-05-21T19:55:38.566Z,99.90
2018-05-21T19:58:06.069Z,99.90
2018-05-21T20:00:34.358Z,99.90
2018-05-21T20:03:02.753Z,99.90
2018-05-21T20:05:31.419Z,99.90
2018-05-21T20:07:58.913Z,99.90
2018-05-21T20:10:28.029Z,99.90
2018-05-21T20:12:57.753Z,99.90
2018-05-21T20:15:26.122Z,99.90
2018-05-21T20:17:54.983Z,99.90
2018-05-21T20:20:35.328Z,99.90
2018-05-21T20:23:06.632Z,99.90
2018-05-21T20:25:35.084Z,99.90
2018-05-21T20:28:02.598Z,99.90
2018-05-21T20:30:30.869Z,99.90
2018-05-21T20:32:58.409Z,99.90
2018-05-21T20:35:25.889Z,99.90
2018-05-21T20:37:57.042Z,99.90
2018-05-21T20:40:25.292Z,99.90
2018-05-21T20:42:52.788Z,99.90
2018-05-21T20:45:20.294Z,99.90
2018-05-21T20:47:47.760Z,99.90
2018-05-21T20:50:15.231Z,99.90
2018-05-21T20:52:43.616Z,99.90
2018-05-21T20:55:11.940Z,99.90
2018-05-21T20:57:41.312Z,99.90
2018-05-21T21:00:08.867Z,99.90
2018-05-21T21:02:36.383Z,99.90
2018-05-21T21:05:04.769Z,99.90
2018-05-21T21:07:33.224Z,99.90
2018-05-21T21:10:01.473Z,99.90
2018-05-21T21:12:30.799Z,99.90
2018-05-21T21:14:58.334Z,99.90
2018-05-21T21:17:26.024Z,99.90
2018-05-21T21:19:53.525Z,99.90
2018-05-21T21:22:21.013Z,99.90
2018-05-21T21:24:48.476Z,99.90
2018-05-21T21:27:16.736Z,99.90
2018-05-21T21:29:44.227Z,99.90
2018-05-21T21:32:11.797Z,99.90
2018-05-21T21:34:39.342Z,99.90
2018-05-21T21:37:06.807Z,99.90
2018-05-21T21:39:37.872Z,99.90
2018-05-21T21:42:06.175Z,99.90
2018-05-21T21:44:33.739Z,99.90
2018-05-21T21:47:01.169Z,99.90
2018-05-21T21:49:28.644Z,99.90
2018-05-21T21:51:56.140Z,99.90
2018-05-21T21:54:23.869Z,99.90
2018-05-21T21:56:51.615Z,99.90
2018-05-21T21:59:20.104Z,99.90
2018-05-21T22:01:47.633Z,99.90
2018-05-21T22:04:15.104Z,99.90
2018-05-21T22:06:42.585Z,99.90
2018-05-21T22:09:14.648Z,99.90
2018-05-21T22:11:42.109Z,99.90
2018-05-21T22:14:10.385Z,99.90
2018-05-21T22:16:37.838Z,99.90
2018-05-21T22:19:05.296Z,99.90
2018-05-21T22:21:32.752Z,99.90
2018-05-21T22:24:00.203Z,99.90
2018-05-21T22:26:32.776Z,99.90
2018-05-21T22:29:01.022Z,99.90
2018-05-21T22:31:28.976Z,99.90
2018-05-21T22:33:56.439Z,99.90
2018-05-21T22:36:23.949Z,99.90
2018-05-21T22:38:52.193Z,99.90
2018-05-21T22:41:19.656Z,99.90
2018-05-21T22:43:47.143Z,99.90
2018-05-21T22:46:14.618Z,99.90
2018-05-21T22:48:42.939Z,99.90
2018-05-21T22:51:10.409Z,99.90
2018-05-21T22:53:37.884Z,99.90
2018-05-21T22:56:06.108Z,99.90
2018-05-21T22:58:33.612Z,99.90
2018-05-21T23:01:01.985Z,99.90
2018-05-21T23:03:29.458Z,99.90
2018-05-21T23:05:56.908Z,99.90
2018-05-21T23:08:24.572Z,99.90
2018-05-21T23:10:52.034Z,99.90
2018-05-21T23:13:19.485Z,99.90
2018-05-21T23:15:46.991Z,99.90
2018-05-21T23:18:14.438Z,99.90
2018-05-21T23:20:41.963Z,99.90
2018-05-21T23:23:10.337Z,99.90
2018-05-21T23:25:37.987Z,99.90
2018-05-21T23:28:05.501Z,99.90
2018-05-21T23:30:33.012Z,99.90
2018-05-21T23:33:00.473Z,99.90
2018-05-21T23:35:27.924Z,99.90
2018-05-21T23:37:55.413Z,99.90
2018-05-21T23:40:24.579Z,99.90
2018-05-21T23:42:52.066Z,99.90
2018-05-21T23:45:20.346Z,99.90
2018-05-21T23:47:49.516Z,99.90
2018-05-21T23:50:16.972Z,99.90
2018-05-21T23:52:44.482Z,99.90
2018-05-21T23:55:11.962Z,99.90
2018-05-21T23:57:39.427Z,99.90
